CE3017 UNAA-UNOO
Flight info
| Callsign | CE3017 |
|---|---|
| Flight time | N/A |
| Altitude | 43000 |
| Route | DOREM1C DOREM A308 OSNAB G825 DORON R706 POGIR POGIR6A |
| Aircraft | C750/M-SBDE3FGHRWXY/S |
Departure
| Time | 2026-05-01 14:34 |
|---|---|
| Airport | Abakan International Airport (UNAA) |
Arrival
| Time | N/A |
|---|---|
| Airport | Omsk Central Airport (UNOO) |
| Time | Latitude | Longitude | Altitude | Speed | Heading |
|---|---|---|---|---|---|
| 2026-05-01 14:05 | 53.74868 | 91.39884 | 796 ft | 0 kts | 162° |
| 2026-05-01 14:26 | 53.74833 | 91.39892 | 799 ft | 6 kts | 197° |
| 2026-05-01 14:26 | 53.74818 | 91.39829 | 799 ft | 6 kts | 289° |
| 2026-05-01 14:27 | 53.74858 | 91.39792 | 798 ft | 7 kts | 342° |
| 2026-05-01 14:27 | 53.74900 | 91.39736 | 798 ft | 9 kts | 296° |
| 2026-05-01 14:27 | 53.74932 | 91.39621 | 798 ft | 12 kts | 293° |
| 2026-05-01 14:28 | 53.74847 | 91.39484 | 798 ft | 8 kts | 204° |
| 2026-05-01 14:28 | 53.74792 | 91.39441 | 799 ft | 10 kts | 205° |
| 2026-05-01 14:28 | 53.74715 | 91.39380 | 801 ft | 14 kts | 205° |
| 2026-05-01 14:28 | 53.74612 | 91.39300 | 802 ft | 18 kts | 205° |
| 2026-05-01 14:29 | 53.74492 | 91.39208 | 801 ft | 19 kts | 204° |
| 2026-05-01 14:29 | 53.74419 | 91.39073 | 802 ft | 10 kts | 234° |
| 2026-05-01 14:30 | 53.74414 | 91.39061 | 802 ft | 4 kts | 234° |
| 2026-05-01 14:30 | 53.74371 | 91.38961 | 801 ft | 17 kts | 236° |
| 2026-05-01 14:30 | 53.74267 | 91.38755 | 802 ft | 28 kts | 221° |
| 2026-05-01 14:31 | 53.73897 | 91.38434 | 807 ft | 29 kts | 204° |
| 2026-05-01 14:31 | 53.73707 | 91.38287 | 805 ft | 30 kts | 205° |
| 2026-05-01 14:31 | 53.73517 | 91.38140 | 808 ft | 29 kts | 206° |
| 2026-05-01 14:31 | 53.73329 | 91.37994 | 807 ft | 30 kts | 205° |
| 2026-05-01 14:32 | 53.73183 | 91.37901 | 806 ft | 15 kts | 180° |
| 2026-05-01 14:32 | 53.73112 | 91.37848 | 806 ft | 11 kts | 291° |
| 2026-05-01 14:32 | 53.73157 | 91.37860 | 806 ft | 0 kts | 24° |
| 2026-05-01 14:33 | 53.73229 | 91.37916 | 806 ft | 42 kts | 25° |
| 2026-05-01 14:33 | 53.73833 | 91.38383 | 807 ft | 140 kts | 25° |
| 2026-05-01 14:33 | 53.74764 | 91.39140 | 1228 ft | 156 kts | 25° |
| 2026-05-01 14:34 | 53.75787 | 91.40002 | 1855 ft | 175 kts | 25° |
| 2026-05-01 14:34 | 53.76992 | 91.40884 | 2404 ft | 202 kts | 24° |
| 2026-05-01 14:34 | 53.78362 | 91.41908 | 3001 ft | 227 kts | 25° |
| 2026-05-01 14:34 | 53.79800 | 91.43030 | 4041 ft | 227 kts | 25° |
| 2026-05-01 14:35 | 53.81232 | 91.44148 | 5134 ft | 227 kts | 24° |
| 2026-05-01 14:35 | 53.82675 | 91.45269 | 6149 ft | 229 kts | 24° |
| 2026-05-01 14:35 | 53.84138 | 91.46391 | 7084 ft | 233 kts | 22° |
| 2026-05-01 14:35 | 53.85799 | 91.46801 | 7513 ft | 260 kts | 351° |
| 2026-05-01 14:36 | 53.87445 | 91.45312 | 8107 ft | 278 kts | 314° |
| 2026-05-01 14:36 | 53.88521 | 91.42647 | 9351 ft | 274 kts | 300° |
| 2026-05-01 14:36 | 53.89417 | 91.39766 | 10247 ft | 280 kts | 297° |
| 2026-05-01 14:36 | 53.90357 | 91.36725 | 10625 ft | 303 kts | 298° |
| 2026-05-01 14:37 | 53.91432 | 91.33472 | 10815 ft | 329 kts | 299° |
| 2026-05-01 14:37 | 53.92592 | 91.29991 | 11207 ft | 343 kts | 299° |
| 2026-05-01 14:37 | 53.93740 | 91.26454 | 12082 ft | 342 kts | 298° |
| 2026-05-01 14:37 | 53.94755 | 91.22781 | 12735 ft | 348 kts | 287° |
| 2026-05-01 14:38 | 53.95025 | 91.18703 | 13509 ft | 350 kts | 271° |
| 2026-05-01 14:38 | 53.94948 | 91.14562 | 14227 ft | 352 kts | 269° |
| 2026-05-01 14:38 | 53.94831 | 91.10390 | 14869 ft | 355 kts | 269° |
| 2026-05-01 14:38 | 53.94733 | 91.06175 | 15513 ft | 358 kts | 270° |
| 2026-05-01 14:39 | 53.94650 | 91.01934 | 16177 ft | 361 kts | 270° |
| 2026-05-01 14:39 | 53.94557 | 90.97660 | 16862 ft | 364 kts | 270° |
| 2026-05-01 14:39 | 53.94452 | 90.93346 | 17564 ft | 367 kts | 270° |
| 2026-05-01 14:39 | 53.94348 | 90.88999 | 18274 ft | 370 kts | 270° |
| 2026-05-01 14:40 | 53.94245 | 90.84608 | 18916 ft | 374 kts | 270° |
| 2026-05-01 14:40 | 53.94140 | 90.80184 | 19571 ft | 377 kts | 270° |
| 2026-05-01 14:40 | 53.94036 | 90.75713 | 20212 ft | 380 kts | 271° |
| 2026-05-01 14:40 | 53.94273 | 90.71246 | 20818 ft | 381 kts | 283° |
| 2026-05-01 14:41 | 53.95013 | 90.66938 | 21489 ft | 382 kts | 293° |
| 2026-05-01 14:41 | 53.96195 | 90.62895 | 22143 ft | 384 kts | 300° |
| 2026-05-01 14:41 | 53.97476 | 90.58901 | 22792 ft | 387 kts | 300° |
| 2026-05-01 14:41 | 53.98751 | 90.54848 | 23442 ft | 391 kts | 299° |
| 2026-05-01 14:42 | 54.00039 | 90.50753 | 23990 ft | 395 kts | 299° |
| 2026-05-01 14:42 | 54.01347 | 90.46626 | 24519 ft | 398 kts | 300° |
| 2026-05-01 14:42 | 54.02662 | 90.42470 | 25053 ft | 401 kts | 299° |
| 2026-05-01 14:42 | 54.03981 | 90.38277 | 25586 ft | 404 kts | 299° |
| 2026-05-01 14:43 | 54.05309 | 90.34044 | 26108 ft | 407 kts | 299° |
| 2026-05-01 14:43 | 54.06648 | 90.29776 | 26626 ft | 410 kts | 299° |
| 2026-05-01 14:43 | 54.07997 | 90.25472 | 27151 ft | 413 kts | 299° |
| 2026-05-01 14:43 | 54.09352 | 90.21138 | 27658 ft | 416 kts | 299° |
| 2026-05-01 14:44 | 54.10699 | 90.16820 | 28176 ft | 420 kts | 299° |
| 2026-05-01 14:44 | 54.13456 | 90.07962 | 29213 ft | 426 kts | 299° |
| 2026-05-01 14:44 | 54.14849 | 90.03474 | 29714 ft | 430 kts | 299° |
| 2026-05-01 14:45 | 54.16248 | 89.98953 | 30198 ft | 433 kts | 299° |
| 2026-05-01 14:45 | 54.19088 | 89.89761 | 30979 ft | 440 kts | 299° |
| 2026-05-01 14:45 | 54.20528 | 89.85148 | 31559 ft | 438 kts | 300° |
| 2026-05-01 14:46 | 54.21998 | 89.80615 | 32260 ft | 435 kts | 300° |
| 2026-05-01 14:46 | 54.24874 | 89.71600 | 33612 ft | 429 kts | 300° |
| 2026-05-01 14:46 | 54.26299 | 89.67154 | 34371 ft | 424 kts | 300° |
| 2026-05-01 14:47 | 54.27714 | 89.62736 | 34935 ft | 423 kts | 301° |
| 2026-05-01 14:47 | 54.29124 | 89.58314 | 35435 ft | 423 kts | 301° |
| 2026-05-01 14:47 | 54.30527 | 89.53895 | 35946 ft | 422 kts | 301° |
| 2026-05-01 14:48 | 54.33329 | 89.45067 | 36961 ft | 421 kts | 301° |
| 2026-05-01 14:48 | 54.34725 | 89.40656 | 37462 ft | 421 kts | 301° |
| 2026-05-01 14:48 | 54.37506 | 89.31840 | 38482 ft | 420 kts | 301° |
| 2026-05-01 14:49 | 54.40280 | 89.23022 | 39289 ft | 420 kts | 301° |
| 2026-05-01 14:49 | 54.43054 | 89.14165 | 40021 ft | 422 kts | 300° |
| 2026-05-01 14:50 | 54.44908 | 89.08226 | 40540 ft | 422 kts | 300° |
| 2026-05-01 14:50 | 54.48603 | 88.96350 | 41574 ft | 424 kts | 300° |
| 2026-05-01 14:51 | 54.49990 | 88.91878 | 41983 ft | 424 kts | 299° |
| 2026-05-01 14:51 | 54.52762 | 88.82911 | 42775 ft | 425 kts | 299° |
| 2026-05-01 14:52 | 54.55545 | 88.73878 | 43109 ft | 434 kts | 299° |
| 2026-05-01 14:52 | 54.56914 | 88.69178 | 43100 ft | 444 kts | 294° |
| 2026-05-01 14:52 | 54.58438 | 88.58671 | 43134 ft | 462 kts | 280° |
| 2026-05-01 14:53 | 54.58900 | 88.53134 | 43142 ft | 470 kts | 280° |
| 2026-05-01 14:53 | 54.59878 | 88.41864 | 43133 ft | 479 kts | 281° |
| 2026-05-01 14:54 | 54.60835 | 88.30492 | 43134 ft | 479 kts | 280° |
| 2026-05-01 14:54 | 54.61790 | 88.19118 | 43124 ft | 480 kts | 280° |
| 2026-05-01 14:55 | 54.62575 | 88.09650 | 43120 ft | 480 kts | 280° |
| 2026-05-01 14:55 | 54.63507 | 87.98255 | 43093 ft | 480 kts | 280° |
| 2026-05-01 14:56 | 54.64431 | 87.86856 | 43095 ft | 480 kts | 280° |
| 2026-05-01 14:56 | 54.65344 | 87.75442 | 43066 ft | 480 kts | 279° |
| 2026-05-01 14:57 | 54.66247 | 87.64020 | 43066 ft | 480 kts | 279° |
| 2026-05-01 14:57 | 54.67580 | 87.46891 | 43056 ft | 480 kts | 279° |
| 2026-05-01 14:58 | 54.68456 | 87.35445 | 43052 ft | 480 kts | 279° |
| 2026-05-01 14:58 | 54.69322 | 87.24007 | 43052 ft | 481 kts | 279° |
| 2026-05-01 14:59 | 54.70176 | 87.12560 | 43049 ft | 480 kts | 279° |
| 2026-05-01 14:59 | 54.71020 | 87.01105 | 43045 ft | 480 kts | 279° |
| 2026-05-01 15:00 | 54.72264 | 86.83931 | 43052 ft | 479 kts | 279° |
| 2026-05-01 15:01 | 54.73080 | 86.72488 | 43049 ft | 479 kts | 278° |
| 2026-05-01 15:01 | 54.73884 | 86.61036 | 43044 ft | 480 kts | 278° |
| 2026-05-01 15:02 | 54.74678 | 86.49580 | 43037 ft | 480 kts | 278° |
| 2026-05-01 15:02 | 54.75461 | 86.38123 | 43042 ft | 480 kts | 278° |
| 2026-05-01 15:03 | 54.76234 | 86.26642 | 43036 ft | 479 kts | 278° |
| 2026-05-01 15:03 | 54.76996 | 86.15176 | 43048 ft | 480 kts | 278° |
| 2026-05-01 15:04 | 54.77750 | 86.03652 | 43046 ft | 481 kts | 277° |
| 2026-05-01 15:04 | 54.78492 | 85.92127 | 43053 ft | 481 kts | 277° |
| 2026-05-01 15:05 | 54.79233 | 85.80597 | 43048 ft | 481 kts | 277° |
| 2026-05-01 15:05 | 54.79965 | 85.69065 | 43046 ft | 481 kts | 277° |
| 2026-05-01 15:06 | 54.80684 | 85.57529 | 43033 ft | 481 kts | 277° |
| 2026-05-01 15:06 | 54.81394 | 85.46001 | 43033 ft | 481 kts | 277° |
| 2026-05-01 15:07 | 54.82086 | 85.34542 | 43031 ft | 481 kts | 277° |
| 2026-05-01 15:07 | 54.82763 | 85.22999 | 43031 ft | 481 kts | 276° |
| 2026-05-01 15:08 | 54.83384 | 85.11444 | 43013 ft | 481 kts | 276° |
| 2026-05-01 15:08 | 54.84021 | 84.99890 | 43015 ft | 481 kts | 276° |
| 2026-05-01 15:09 | 54.84633 | 84.88323 | 43018 ft | 481 kts | 276° |
| 2026-05-01 15:09 | 54.85242 | 84.76762 | 43011 ft | 481 kts | 276° |
| 2026-05-01 15:10 | 54.85837 | 84.65186 | 43008 ft | 481 kts | 276° |
| 2026-05-01 15:10 | 54.86710 | 84.47820 | 42996 ft | 482 kts | 275° |
| 2026-05-01 15:11 | 54.87559 | 84.30436 | 43023 ft | 482 kts | 275° |
| 2026-05-01 15:12 | 54.88109 | 84.18871 | 42999 ft | 480 kts | 275° |
| 2026-05-01 15:12 | 54.88914 | 84.01528 | 42992 ft | 480 kts | 275° |
| 2026-05-01 15:14 | 54.90202 | 83.72595 | 42977 ft | 480 kts | 275° |
| 2026-05-01 15:14 | 54.90941 | 83.55224 | 42976 ft | 481 kts | 275° |
| 2026-05-01 15:15 | 54.91886 | 83.32117 | 42973 ft | 481 kts | 274° |
| 2026-05-01 15:16 | 54.94089 | 83.09313 | 42957 ft | 482 kts | 292° |
| 2026-05-01 15:17 | 54.97603 | 82.99399 | 42954 ft | 485 kts | 308° |
| 2026-05-01 15:18 | 55.04414 | 82.86340 | 42968 ft | 486 kts | 310° |
| 2026-05-01 15:19 | 55.13513 | 82.68848 | 42970 ft | 487 kts | 310° |
| 2026-05-01 15:19 | 55.20322 | 82.55672 | 42969 ft | 486 kts | 310° |
| 2026-05-01 15:20 | 55.26851 | 82.42095 | 42930 ft | 484 kts | 300° |
| 2026-05-01 15:21 | 55.29509 | 82.31333 | 42943 ft | 481 kts | 285° |
| 2026-05-01 15:21 | 55.31211 | 82.20049 | 42943 ft | 483 kts | 284° |
| 2026-05-01 15:22 | 55.33800 | 82.02978 | 42945 ft | 482 kts | 284° |
| 2026-05-01 15:22 | 55.35507 | 81.91574 | 42940 ft | 482 kts | 284° |
| 2026-05-01 15:23 | 55.37205 | 81.80166 | 42935 ft | 483 kts | 284° |
| 2026-05-01 15:23 | 55.38891 | 81.68744 | 42932 ft | 482 kts | 284° |
| 2026-05-01 15:24 | 55.40567 | 81.57313 | 42925 ft | 483 kts | 283° |
| 2026-05-01 15:24 | 55.42233 | 81.45870 | 42924 ft | 483 kts | 283° |
| 2026-05-01 15:25 | 55.43888 | 81.34414 | 42926 ft | 483 kts | 283° |
| 2026-05-01 15:25 | 55.45533 | 81.22947 | 42911 ft | 483 kts | 283° |
| 2026-05-01 15:26 | 55.47179 | 81.11381 | 42906 ft | 493 kts | 283° |
| 2026-05-01 15:26 | 55.48813 | 80.99554 | 42900 ft | 498 kts | 282° |
| 2026-05-01 15:27 | 55.50445 | 80.87708 | 42903 ft | 498 kts | 283° |
| 2026-05-01 15:28 | 55.52870 | 80.69899 | 42888 ft | 498 kts | 282° |
| 2026-05-01 15:28 | 55.54475 | 80.58014 | 42876 ft | 498 kts | 282° |
| 2026-05-01 15:29 | 55.56861 | 80.40147 | 42876 ft | 499 kts | 282° |
| 2026-05-01 15:30 | 55.60004 | 80.16275 | 42871 ft | 499 kts | 282° |
| 2026-05-01 15:31 | 55.63658 | 79.80269 | 42842 ft | 497 kts | 271° |
| 2026-05-01 15:32 | 55.64253 | 79.55826 | 42845 ft | 497 kts | 271° |
| 2026-05-01 15:34 | 55.65044 | 79.19142 | 42820 ft | 497 kts | 271° |